Time;durP1;ratioP1;P1;durP2;ratioP2;P2;SDS_P1;SDS_P2;PMS_P1;PMS_P2;Temp;Humidity;BMP_temperature;BMP_pressure;BME280_temperature;BME280_humidity;BME280_pressure;Samples;Min_cycle;Max_cycle;Signal;HPM_P1;HPM_P2
2023/10/02 00:01:51;;;;;;;9.98;6.03;;;22.00;90.50;;;;;;5033764;28;20033;-84
2023/10/02 00:04:23;;;;;;;13.48;6.60;;;22.00;90.50;;;;;;5033227;28;20322;-84
2023/10/02 00:07:05;;;;;;;;;;;22.00;90.50;;;;;;5034321;28;20075;-83
2023/10/02 00:09:37;;;;;;;11.48;5.68;;;22.00;90.50;;;;;;5032792;28;19974;-84
2023/10/02 00:12:11;;;;;;;9.48;5.97;;;22.00;90.50;;;;;;5017414;28;20036;-84
2023/10/02 00:14:38;;;;;;;11.20;6.68;;;22.00;90.50;;;;;;5033847;28;20046;-84
2023/10/02 00:17:06;;;;;;;13.32;6.97;;;22.00;90.50;;;;;;5032357;28;20033;-84
2023/10/02 00:19:39;;;;;;;13.38;7.03;;;21.90;90.50;;;;;;5033077;28;20466;-84
2023/10/02 00:22:09;;;;;;;12.77;7.03;;;21.90;90.60;;;;;;5033150;28;20029;-84
2023/10/02 00:24:37;;;;;;;12.90;7.22;;;21.90;90.60;;;;;;5033142;28;20041;-84
2023/10/02 00:27:07;;;;;;;10.18;5.80;;;21.90;90.60;;;;;;5032718;28;20025;-83
2023/10/02 00:29:34;;;;;;;11.15;6.68;;;21.90;90.60;;;;;;5033217;28;20120;-83
2023/10/02 00:32:10;;;;;;;11.88;6.60;;;21.90;90.60;;;;;;5015257;28;20034;-83
2023/10/02 00:34:38;;;;;;;10.80;6.40;;;21.90;90.70;;;;;;5033211;28;20091;-83
2023/10/02 00:37:06;;;;;;;9.98;5.65;;;21.90;90.70;;;;;;5032876;28;20049;-84
2023/10/02 00:39:36;;;;;;;11.18;5.90;;;21.90;90.70;;;;;;5031215;28;20034;-83
2023/10/02 00:44:51;;;;;;;11.18;6.05;;;21.90;90.80;;;;;;5032700;28;20040;-84
2023/10/02 00:47:41;;;;;;;13.70;7.78;;;21.90;90.70;;;;;;5032502;28;20021;-84
2023/10/02 00:50:18;;;;;;;10.30;6.15;;;21.90;90.80;;;;;;5033440;28;20057;-84
2023/10/02 00:52:47;;;;;;;12.75;6.90;;;21.80;90.80;;;;;;5033626;28;20120;-85
2023/10/02 00:55:15;;;;;;;11.30;6.68;;;21.80;90.80;;;;;;5032806;28;20036;-84
2023/10/02 00:57:43;;;;;;;9.95;6.63;;;21.80;90.80;;;;;;5032902;28;20119;-84
2023/10/02 01:00:17;;;;;;;13.20;7.72;;;21.80;90.80;;;;;;5033454;28;20032;-84
2023/10/02 01:02:51;;;;;;;10.32;6.80;;;21.80;90.90;;;;;;5033314;28;20033;-85
2023/10/02 01:05:30;;;;;;;12.93;7.70;;;21.80;90.90;;;;;;5032037;28;20538;-84
2023/10/02 01:07:59;;;;;;;12.30;6.88;;;21.80;90.90;;;;;;5031707;28;20090;-84
2023/10/02 01:10:35;;;;;;;12.63;6.90;;;21.80;90.90;;;;;;5031939;28;20036;-84
2023/10/02 01:13:01;;;;;;;11.30;7.20;;;21.70;90.90;;;;;;5032846;28;20037;-85
2023/10/02 01:15:28;;;;;;;12.93;7.47;;;21.80;90.90;;;;;;5031777;28;20115;-85
2023/10/02 01:18:21;;;;;;;13.65;7.20;;;21.70;90.90;;;;;;5033089;28;20037;-84
2023/10/02 01:20:47;;;;;;;14.35;7.88;;;21.70;90.90;;;;;;5035163;28;20037;-84
2023/10/02 01:23:22;;;;;;;12.63;6.75;;;21.80;90.90;;;;;;5036841;28;20047;-84
2023/10/02 01:25:49;;;;;;;11.55;6.50;;;21.80;90.90;;;;;;5036688;28;20042;-84
2023/10/02 01:28:25;;;;;;;12.65;6.97;;;21.70;90.90;;;;;;5037103;28;20133;-83
2023/10/02 01:30:51;;;;;;;13.18;6.80;;;21.70;90.90;;;;;;5038242;28;20031;-83
2023/10/02 01:33:26;;;;;;;10.70;6.32;;;21.70;90.90;;;;;;5037242;28;20096;-83
2023/10/02 01:35:56;;;;;;;11.52;6.70;;;21.70;90.90;;;;;;5037984;28;20141;-84
2023/10/02 01:38:33;;;;;;;12.35;6.90;;;21.80;90.90;;;;;;5036757;28;20080;-85
2023/10/02 01:41:04;;;;;;;10.70;6.07;;;21.70;90.90;;;;;;5036483;28;20026;-84
2023/10/02 01:44:00;;;;;;;13.85;6.90;;;21.70;90.90;;;;;;5035478;28;20063;-83
2023/10/02 01:46:28;;;;;;;11.55;7.10;;;21.80;90.90;;;;;;5036160;28;20048;-83
2023/10/02 01:48:54;;;;;;;12.85;6.97;;;21.70;90.90;;;;;;5034832;28;20503;-82
2023/10/02 01:53:56;;;;;;;12.05;6.60;;;21.70;91.00;;;;;;5036087;28;20029;-83
2023/10/02 01:56:27;;;;;;;13.00;6.43;;;21.60;91.00;;;;;;5035814;28;20036;-83
2023/10/02 01:58:54;;;;;;;11.80;6.93;;;21.60;91.00;;;;;;5036059;28;20021;-83
2023/10/02 02:01:22;;;;;;;12.63;7.28;;;21.60;91.00;;;;;;5036148;28;20026;-83
2023/10/02 02:03:51;;;;;;;12.57;6.93;;;21.60;91.00;;;;;;5035921;28;20029;-84
2023/10/02 02:06:21;;;;;;;12.63;7.13;;;21.70;91.00;;;;;;5034716;28;20072;-84
2023/10/02 02:09:01;;;;;;;11.35;6.65;;;21.70;91.00;;;;;;5035815;28;20025;-83
2023/10/02 02:11:29;;;;;;;11.18;6.55;;;21.70;91.00;;;;;;5035808;28;20032;-83
2023/10/02 02:13:58;;;;;;;12.80;6.80;;;21.60;91.00;;;;;;5034868;28;20033;-83
2023/10/02 02:16:31;;;;;;;11.35;6.78;;;21.60;91.00;;;;;;5035666;28;20061;-83
2023/10/02 02:18:58;;;;;;;9.48;5.88;;;21.60;91.00;;;;;;5036005;28;20378;-83
2023/10/02 02:21:24;;;;;;;11.30;6.53;;;21.70;91.10;;;;;;5034744;28;20037;-83
2023/10/02 02:24:03;;;;;;;11.23;6.63;;;21.60;91.10;;;;;;5035541;28;20468;-84
2023/10/02 02:26:33;;;;;;;10.63;6.30;;;21.60;91.10;;;;;;5036182;28;20319;-83
2023/10/02 02:29:00;;;;;;;10.88;6.25;;;21.60;91.10;;;;;;5034939;28;20077;-82
2023/10/02 02:31:29;;;;;;;12.95;6.63;;;21.60;91.10;;;;;;5034464;28;20026;-83
2023/10/02 02:34:03;;;;;;;11.45;6.82;;;21.60;91.10;;;;;;5034709;28;20041;-83
2023/10/02 02:36:35;;;;;;;11.13;6.30;;;21.60;91.10;;;;;;5035375;28;20029;-83
2023/10/02 02:39:15;;;;;;;12.23;7.05;;;21.60;91.10;;;;;;5035361;28;20033;-83
2023/10/02 02:42:18;;;;;;;9.45;6.28;;;21.60;91.10;;;;;;5035162;28;20060;-82
2023/10/02 02:44:50;;;;;;;10.48;6.10;;;21.50;91.10;;;;;;5034269;28;20040;-83
2023/10/02 02:47:23;;;;;;;9.98;6.30;;;21.50;91.10;;;;;;5050457;28;20111;-83
2023/10/02 02:49:51;;;;;;;12.98;7.32;;;21.60;91.10;;;;;;5034852;28;20049;-83
2023/10/02 02:52:27;;;;;;;9.73;5.85;;;21.60;91.10;;;;;;5034761;28;20109;-82
2023/10/02 02:55:05;;;;;;;11.85;6.80;;;21.50;91.10;;;;;;5035103;28;20036;-82
2023/10/02 02:57:32;;;;;;;12.00;6.72;;;21.50;91.10;;;;;;5035178;28;20065;-82
2023/10/02 03:02:52;;;;;;;12.63;6.82;;;21.60;91.20;;;;;;5034589;28;20532;-83
2023/10/02 03:05:22;;;;;;;11.27;6.60;;;21.50;91.20;;;;;;5034682;28;20526;-83
2023/10/02 03:07:49;;;;;;;10.35;6.30;;;21.50;91.20;;;;;;5033782;28;20595;-83
2023/10/02 03:10:19;;;;;;;9.57;6.25;;;21.50;91.20;;;;;;5035295;28;20049;-83
2023/10/02 03:12:45;;;;;;;10.35;6.15;;;21.40;91.20;;;;;;5033308;28;20047;-83
2023/10/02 03:15:45;;;;;;;11.65;6.10;;;21.50;91.30;;;;;;5034526;28;20112;-83
2023/10/02 03:18:22;;;;;;;12.55;6.60;;;21.40;91.20;;;;;;5034269;28;20117;-83
2023/10/02 03:20:52;;;;;;;12.20;6.50;;;21.40;91.20;;;;;;5034259;28;20056;-82
2023/10/02 03:23:18;;;;;;;11.18;6.38;;;21.40;91.20;;;;;;5034451;28;20113;-83
2023/10/02 03:25:47;;;;;;;11.68;6.30;;;21.40;91.30;;;;;;5033956;28;20045;-83
2023/10/02 03:28:27;;;;;;;11.40;6.40;;;21.40;91.30;;;;;;5034318;28;20128;-81
2023/10/02 03:30:53;;;;;;;11.38;6.68;;;21.40;91.30;;;;;;5034314;28;20026;-83
2023/10/02 03:33:22;;;;;;;13.13;6.40;;;21.40;91.30;;;;;;5033977;28;20029;-83
2023/10/02 03:36:07;;;;;;;10.30;6.88;;;21.40;91.30;;;;;;5034299;28;20041;-83
2023/10/02 03:38:33;;;;;;;12.93;6.90;;;21.40;91.30;;;;;;5034630;28;20033;-83
2023/10/02 03:41:05;;;;;;;11.57;6.72;;;21.40;91.30;;;;;;5033907;28;20027;-83
2023/10/02 03:43:49;;;;;;;10.27;5.82;;;21.40;91.30;;;;;;5034671;28;20030;-83
2023/10/02 03:46:35;;;;;;;11.15;6.55;;;21.40;91.30;;;;;;5033744;28;20064;-82
2023/10/02 03:49:04;;;;;;;11.15;5.93;;;21.40;91.30;;;;;;5035801;28;20037;-83
2023/10/02 03:51:36;;;;;;;12.02;6.63;;;21.40;91.30;;;;;;5034914;28;20044;-83
2023/10/02 03:54:17;;;;;;;12.18;6.35;;;21.40;91.30;;;;;;5036354;28;20036;-83
2023/10/02 03:56:55;;;;;;;11.05;6.45;;;21.40;91.30;;;;;;5034541;28;20120;-83
2023/10/02 03:59:25;;;;;;;9.98;6.03;;;21.40;91.30;;;;;;5035924;28;20037;-83
2023/10/02 04:01:51;;;;;;;15.45;7.20;;;21.40;91.30;;;;;;5034123;28;20087;-83
2023/10/02 04:04:24;;;;;;;11.98;6.82;;;21.40;91.40;;;;;;5033777;28;20107;-84
2023/10/02 04:06:55;;;;;;;12.35;6.95;;;21.30;91.40;;;;;;5034023;28;20060;-83
2023/10/02 04:09:23;;;;;;;10.35;6.30;;;21.40;91.30;;;;;;5034302;28;20037;-83
2023/10/02 04:11:50;;;;;;;12.43;7.18;;;21.30;91.30;;;;;;5032893;28;20458;-83
2023/10/02 04:14:31;;;;;;;13.02;7.13;;;21.30;91.40;;;;;;5033650;28;20025;-84
2023/10/02 04:19:43;;;;;;;10.65;6.25;;;21.30;91.40;;;;;;5033703;28;20022;-81
2023/10/02 04:22:16;;;;;;;11.93;6.72;;;21.30;91.40;;;;;;5033476;28;20087;-84
2023/10/02 04:25:26;;;;;;;11.73;6.63;;;21.20;91.40;;;;;;5033590;28;20090;-83
2023/10/02 04:32:42;;;;;;;10.65;6.40;;;21.30;91.40;;;;;;5033600;28;20044;-81
2023/10/02 04:38:07;;;;;;;11.23;6.35;;;21.30;91.40;;;;;;5024837;28;20426;-85
2023/10/02 04:40:52;;;;;;;10.57;6.50;;;21.20;91.40;;;;;;5033445;28;20458;-84
2023/10/02 04:43:25;;;;;;;10.70;6.40;;;21.20;91.40;;;;;;5033197;28;20411;-84
2023/10/02 04:46:14;;;;;;;11.35;6.63;;;21.20;91.40;;;;;;5033535;28;20033;-85
2023/10/02 04:48:42;;;;;;;11.85;6.85;;;21.20;91.50;;;;;;5033607;28;20033;-84
2023/10/02 04:51:08;;;;;;;10.85;6.47;;;21.20;91.50;;;;;;5033139;28;20034;-85
2023/10/02 04:53:36;;;;;;;10.45;6.45;;;21.20;91.50;;;;;;5033150;28;20033;-85
2023/10/02 04:58:49;;;;;;;11.23;6.72;;;21.20;91.50;;;;;;5037033;28;20043;-85
2023/10/02 05:01:29;;;;;;;10.20;6.20;;;21.20;91.60;;;;;;5037103;28;20025;-84
2023/10/02 05:04:07;;;;;;;12.75;7.45;;;21.20;91.60;;;;;;5037370;28;20107;-84
2023/10/02 05:06:44;;;;;;;11.30;6.88;;;21.10;91.60;;;;;;5037528;28;20129;-83
2023/10/02 05:11:55;;;;;;;10.80;6.18;;;21.10;91.60;;;;;;5037166;28;20103;-84
2023/10/02 05:14:47;;;;;;;10.57;6.38;;;21.10;91.60;;;;;;5035597;28;20032;-84
2023/10/02 05:17:17;;;;;;;13.17;6.93;;;21.00;91.60;;;;;;5037125;28;20463;-84
2023/10/02 05:20:04;;;;;;;13.80;6.90;;;21.00;91.60;;;;;;5036960;28;20040;-84
2023/10/02 05:22:31;;;;;;;12.82;7.13;;;21.00;91.70;;;;;;5037355;28;20041;-84
2023/10/02 05:24:58;;;;;;;11.00;6.75;;;21.00;91.70;;;;;;5036856;28;20045;-84
2023/10/02 05:27:36;;;;;;;11.85;6.97;;;21.00;91.70;;;;;;5036622;28;20112;-84
2023/10/02 05:30:17;;;;;;;10.48;6.60;;;21.00;91.70;;;;;;5040396;28;20048;-84
2023/10/02 05:32:43;;;;;;;11.60;6.45;;;21.00;91.80;;;;;;5044268;28;20120;-84
2023/10/02 05:37:43;;;;;;;14.23;7.28;;;21.00;91.70;;;;;;5044707;28;20080;-83
2023/10/02 05:45:40;;;;;;;13.50;7.43;;;21.00;91.80;;;;;;5049010;28;20387;-82
2023/10/02 05:48:12;;;;;;;12.05;6.95;;;21.00;91.80;;;;;;5052250;28;20030;-82
2023/10/02 05:50:41;;;;;;;13.15;6.35;;;21.00;91.80;;;;;;5048606;28;20029;-82
2023/10/02 05:53:07;;;;;;;11.98;6.57;;;21.00;91.80;;;;;;5051276;28;20033;-82
2023/10/02 05:55:56;;;;;;;13.95;6.90;;;21.00;91.80;;;;;;5049522;28;20043;-80
2023/10/02 05:58:31;;;;;;;11.65;6.25;;;21.00;91.80;;;;;;5049986;28;20056;-82
2023/10/02 06:01:06;;;;;;;11.95;6.43;;;21.00;91.80;;;;;;5049106;28;20140;-82
2023/10/02 06:03:34;;;;;;;10.75;6.55;;;21.00;91.80;;;;;;5044678;28;20419;-82
2023/10/02 06:06:18;;;;;;;13.32;7.53;;;21.00;91.80;;;;;;5046155;28;20056;-82
2023/10/02 06:09:00;;;;;;;13.77;7.18;;;21.00;91.70;;;;;;5049837;28;20113;-81
2023/10/02 06:11:26;;;;;;;;;;;21.00;91.70;;;;;;5051052;28;20037;-82
2023/10/02 06:13:56;;;;;;;12.32;6.93;;;20.90;91.70;;;;;;5047554;28;19905;-82
2023/10/02 06:16:26;;;;;;;12.95;6.63;;;20.90;91.80;;;;;;5044567;28;20033;-82
2023/10/02 06:19:00;;;;;;;13.45;6.82;;;20.90;91.80;;;;;;5044236;28;20033;-82
2023/10/02 06:21:35;;;;;;;10.95;6.32;;;20.90;91.80;;;;;;5042935;28;20029;-82
2023/10/02 06:24:01;;;;;;;11.80;6.93;;;20.90;91.90;;;;;;5042318;28;20105;-83
2023/10/02 06:26:29;;;;;;;12.13;7.00;;;20.90;91.90;;;;;;5039849;28;20584;-82
2023/10/02 06:29:16;;;;;;;12.65;7.40;;;20.90;91.90;;;;;;5042564;28;20048;-82
2023/10/02 06:31:50;;;;;;;15.15;6.80;;;20.90;91.90;;;;;;5044183;28;20037;-82
2023/10/02 06:34:19;;;;;;;12.52;6.55;;;20.90;91.90;;;;;;5046238;28;20029;-83
2023/10/02 06:36:48;;;;;;;14.20;6.88;;;21.00;91.90;;;;;;5047998;28;20112;-82
2023/10/02 06:39:21;;;;;;;12.73;6.93;;;21.00;91.90;;;;;;5046158;28;20531;-83
2023/10/02 06:41:47;;;;;;;12.43;6.50;;;21.00;91.90;;;;;;5047964;28;20029;-82
2023/10/02 06:44:15;;;;;;;11.93;7.20;;;21.00;91.90;;;;;;5045300;28;20037;-82
2023/10/02 06:46:55;;;;;;;14.23;7.13;;;21.00;91.90;;;;;;5043442;28;20037;-83
2023/10/02 06:49:21;;;;;;;11.40;7.03;;;21.10;91.90;;;;;;5021513;28;20033;-83
2023/10/02 06:51:50;;;;;;;15.75;8.75;;;21.10;91.90;;;;;;5042290;28;20029;-80
2023/10/02 06:54:19;;;;;;;13.30;7.43;;;21.00;91.90;;;;;;5041540;28;20466;-83
2023/10/02 06:56:49;;;;;;;16.42;8.18;;;21.00;91.90;;;;;;5044020;28;20059;-82
2023/10/02 06:59:16;;;;;;;13.50;6.97;;;21.00;92.00;;;;;;5036349;28;20057;-81
2023/10/02 07:04:30;;;;;;;12.55;7.45;;;21.00;92.00;;;;;;5034799;28;20103;-80
2023/10/02 07:07:02;;;;;;;18.10;8.23;;;20.90;92.00;;;;;;5035462;28;20025;-79
2023/10/02 07:09:33;;;;;;;13.00;7.47;;;21.00;92.10;;;;;;5035652;28;20057;-80
2023/10/02 07:12:08;;;;;;;16.70;8.30;;;21.00;92.20;;;;;;5036505;28;20034;-82
2023/10/02 07:14:37;;;;;;;15.38;8.18;;;21.00;92.30;;;;;;5035124;28;20443;-79
2023/10/02 07:17:16;;;;;;;18.35;9.88;;;21.00;92.50;;;;;;5034275;28;20091;-78
2023/10/02 07:19:51;;;;;;;17.48;8.90;;;21.00;92.60;;;;;;5034605;28;20521;-83
2023/10/02 07:22:17;;;;;;;18.73;9.00;;;21.00;92.60;;;;;;5037032;28;20036;-81
2023/10/02 07:24:46;;;;;;;20.65;10.18;;;21.10;92.60;;;;;;5035139;28;20038;-81
2023/10/02 07:27:28;;;;;;;15.00;8.18;;;21.10;92.50;;;;;;5034958;28;20034;-79
2023/10/02 07:29:58;;;;;;;14.93;8.25;;;21.10;92.50;;;;;;5034794;28;20429;-82
2023/10/02 07:32:29;;;;;;;13.75;7.85;;;21.10;92.60;;;;;;5036684;28;20119;-82
2023/10/02 07:34:55;;;;;;;15.13;7.72;;;21.20;92.60;;;;;;5033937;28;20075;-80
2023/10/02 07:37:25;;;;;;;16.05;7.90;;;21.20;92.60;;;;;;5033166;28;20122;-80
2023/10/02 07:40:02;;;;;;;15.18;8.13;;;21.20;92.60;;;;;;5034340;28;20552;-80
2023/10/02 07:42:31;;;;;;;21.38;10.63;;;21.20;92.70;;;;;;5034150;28;20156;-82
2023/10/02 07:45:14;;;;;;;18.33;9.23;;;21.20;92.80;;;;;;5034367;28;20033;-83
2023/10/02 07:47:55;;;;;;;;;;;21.20;92.80;;;;;;5035908;28;20025;-81
2023/10/02 07:50:24;;;;;;;15.50;8.75;;;21.30;92.90;;;;;;5033462;28;19986;-82
2023/10/02 07:52:51;;;;;;;18.67;9.57;;;21.40;93.00;;;;;;5033431;28;20022;-83
2023/10/02 07:55:23;;;;;;;15.70;8.43;;;21.40;92.80;;;;;;5037001;28;20478;-84
2023/10/02 07:57:58;;;;;;;16.55;8.35;;;21.40;92.80;;;;;;5037971;28;20080;-82
2023/10/02 08:00:38;;;;;;;14.07;7.63;;;21.40;92.80;;;;;;5034403;28;20037;-81
2023/10/02 08:03:32;;;;;;;19.05;9.27;;;21.40;92.70;;;;;;5034878;28;20034;-83
2023/10/02 08:06:20;;;;;;;21.98;10.35;;;21.40;92.60;;;;;;5034142;28;20133;-81
2023/10/02 08:11:49;;;;;;;17.85;8.52;;;21.40;92.70;;;;;;5026570;28;20541;-81
2023/10/02 08:14:35;;;;;;;17.15;8.60;;;21.40;92.70;;;;;;5035117;28;20431;-83
2023/10/02 08:17:22;;;;;;;15.88;7.82;;;21.40;92.70;;;;;;5036431;28;20076;-82
2023/10/02 08:19:56;;;;;;;14.38;7.65;;;21.40;92.70;;;;;;5034489;28;20032;-80
2023/10/02 08:22:35;;;;;;;16.55;8.60;;;21.40;92.70;;;;;;5034028;28;20026;-79
2023/10/02 08:25:05;;;;;;;16.45;8.27;;;21.40;92.70;;;;;;5033999;28;20119;-82
2023/10/02 08:27:32;;;;;;;16.70;8.55;;;21.40;92.70;;;;;;5034579;28;20053;-81
2023/10/02 08:30:00;;;;;;;16.40;9.13;;;21.40;92.70;;;;;;5036352;28;20033;-81
2023/10/02 08:32:30;;;;;;;13.80;7.85;;;21.40;92.80;;;;;;5036213;28;20117;-81
2023/10/02 08:34:57;;;;;;;15.70;9.20;;;21.40;92.90;;;;;;5035466;28;20069;-81
2023/10/02 08:37:25;;;;;;;17.48;9.35;;;21.50;92.90;;;;;;5033864;28;20049;-80
2023/10/02 08:39:51;;;;;;;19.40;10.20;;;21.50;93.20;;;;;;5032527;28;20385;-81
2023/10/02 08:42:18;;;;;;;20.67;10.85;;;21.50;93.30;;;;;;5034818;28;20120;-80
2023/10/02 08:44:44;;;;;;;20.38;10.40;;;21.50;93.20;;;;;;5049952;28;20111;-81
2023/10/02 08:47:12;;;;;;;20.92;11.48;;;21.60;93.10;;;;;;5048451;28;20030;-81
2023/10/02 08:49:38;;;;;;;19.95;9.88;;;21.70;93.00;;;;;;5033109;28;20022;-83
2023/10/02 08:52:14;;;;;;;20.63;10.52;;;21.70;92.90;;;;;;5034496;28;20084;-83
2023/10/02 08:54:41;;;;;;;21.88;10.95;;;21.80;92.90;;;;;;5035075;28;20099;-84
2023/10/02 08:57:12;;;;;;;17.85;9.75;;;21.80;92.90;;;;;;5032310;28;20030;-84
2023/10/02 08:59:38;;;;;;;16.92;8.60;;;21.70;92.90;;;;;;5035170;28;20036;-83
2023/10/02 09:02:17;;;;;;;14.48;8.65;;;21.80;92.90;;;;;;5034831;28;20040;-80
2023/10/02 09:04:55;;;;;;;16.25;8.88;;;21.80;92.80;;;;;;5035015;28;20367;-83
2023/10/02 09:07:44;;;;;;;20.17;10.40;;;21.80;92.70;;;;;;5035242;28;20028;-83
2023/10/02 09:10:30;;;;;;;19.67;10.23;;;21.80;92.80;;;;;;5050435;28;20032;-82
2023/10/02 09:13:16;;;;;;;18.42;9.35;;;21.70;92.90;;;;;;5018276;28;20057;-83
2023/10/02 09:15:53;;;;;;;20.65;10.95;;;21.80;92.80;;;;;;5033283;28;20033;-82
2023/10/02 09:19:07;;;;;;;19.60;10.63;;;21.80;93.20;;;;;;5035579;28;20056;-82
2023/10/02 09:21:22;;;;;;;20.73;10.80;;;21.70;93.10;;;;;;5032773;28;20508;-82
2023/10/02 09:23:51;;;;;;;22.98;12.43;;;21.70;93.20;;;;;;5033613;28;20033;-84
2023/10/02 09:26:23;;;;;;;25.08;11.25;;;21.70;93.20;;;;;;5033640;28;20045;-81
2023/10/02 09:28:59;;;;;;;16.90;8.98;;;21.60;93.10;;;;;;5031673;28;20569;-83
2023/10/02 09:31:34;;;;;;;20.20;8.43;;;21.60;93.20;;;;;;5032504;28;20038;-83
2023/10/02 09:34:16;;;;;;;19.60;9.10;;;21.70;93.20;;;;;;5034166;28;20026;-79
2023/10/02 09:36:52;;;;;;;18.85;9.32;;;21.70;93.10;;;;;;5032970;28;20021;-78
2023/10/02 09:39:36;;;;;;;18.88;9.10;;;21.80;93.20;;;;;;5032268;28;20037;-77
2023/10/02 09:42:07;;;;;;;18.33;8.68;;;21.80;93.20;;;;;;5034996;28;20095;-78
2023/10/02 09:44:42;;;;;;;18.40;9.77;;;21.80;93.20;;;;;;5036464;28;20038;-79
2023/10/02 09:47:08;;;;;;;26.92;12.00;;;21.80;93.20;;;;;;5036388;28;20430;-79
2023/10/02 09:49:47;;;;;;;21.92;11.43;;;21.90;93.30;;;;;;5036380;28;20184;-79
2023/10/02 09:52:23;;;;;;;18.80;9.98;;;21.80;93.20;;;;;;5036592;28;20116;-79
2023/10/02 09:55:06;;;;;;;20.88;10.23;;;21.90;93.20;;;;;;5036450;28;20048;-79
2023/10/02 09:57:38;;;;;;;16.52;8.55;;;21.90;93.20;;;;;;5036076;28;20033;-79
2023/10/02 10:03:24;;;;;;;18.30;9.93;;;22.00;93.30;;;;;;5034887;28;20064;-79
2023/10/02 10:06:16;;;;;;;24.08;11.88;;;22.00;93.20;;;;;;5034871;28;20069;-80
2023/10/02 10:11:44;;;;;;;14.85;8.77;;;22.20;93.30;;;;;;5035582;28;20044;-79
2023/10/02 10:14:36;;;;;;;15.45;9.07;;;22.20;93.10;;;;;;5035967;28;20104;-79
2023/10/02 10:17:17;;;;;;;24.35;12.00;;;22.30;92.90;;;;;;5035470;28;20113;-80
2023/10/02 10:20:08;;;;;;;22.40;10.82;;;22.30;92.90;;;;;;5051081;28;20379;-79
2023/10/02 10:22:38;;;;;;;21.90;10.73;;;22.30;92.90;;;;;;5050835;28;20030;-79
2023/10/02 10:25:32;;;;;;;15.40;8.52;;;22.30;92.90;;;;;;5035438;28;20046;-80
2023/10/02 10:27:59;;;;;;;20.02;11.10;;;22.40;93.00;;;;;;5035293;28;20132;-80
2023/10/02 10:30:25;;;;;;;19.45;10.45;;;22.40;93.30;;;;;;5034723;28;20120;-79
2023/10/02 10:35:34;;;;;;;21.38;10.90;;;22.40;93.00;;;;;;5035395;28;20034;-80
2023/10/02 10:38:31;;;;;;;16.27;9.02;;;22.40;92.90;;;;;;5035144;28;20093;-79
2023/10/02 10:41:00;;;;;;;15.07;8.50;;;22.50;93.10;;;;;;5035250;28;20025;-80
2023/10/02 10:43:43;;;;;;;20.05;10.27;;;22.60;92.70;;;;;;5035852;28;20482;-80
2023/10/02 10:46:13;;;;;;;19.98;9.40;;;22.70;92.60;;;;;;5038098;28;20118;-80
2023/10/02 10:48:40;;;;;;;17.45;8.85;;;22.70;92.50;;;;;;5039337;28;20029;-80
2023/10/02 10:51:20;;;;;;;19.30;10.10;;;22.80;92.50;;;;;;5037425;28;20107;-80
2023/10/02 10:53:47;;;;;;;17.83;9.52;;;22.80;92.60;;;;;;5038123;28;20029;-80
2023/10/02 10:56:19;;;;;;;18.73;10.27;;;22.90;92.60;;;;;;5035868;28;20034;-79
2023/10/02 10:58:47;;;;;;;20.27;11.05;;;23.00;92.50;;;;;;5036564;28;20041;-80
2023/10/02 11:01:20;;;;;;;18.55;10.35;;;23.00;92.60;;;;;;5037231;28;20049;-81
2023/10/02 11:03:54;;;;;;;23.48;11.57;;;23.00;92.50;;;;;;5035358;28;20036;-80
2023/10/02 11:06:21;;;;;;;19.20;10.20;;;23.10;92.50;;;;;;5035037;28;20390;-80
2023/10/02 11:09:15;;;;;;;21.67;10.70;;;23.10;92.70;;;;;;5035364;28;20030;-80
2023/10/02 11:11:50;;;;;;;23.85;11.63;;;23.30;92.60;;;;;;5034759;28;20462;-80
2023/10/02 11:14:35;;;;;;;18.23;9.68;;;23.30;92.70;;;;;;5034605;28;20030;-80
2023/10/02 11:17:04;;;;;;;19.50;9.38;;;23.30;92.60;;;;;;5034456;28;20109;-80
2023/10/02 11:22:22;;;;;;;15.05;8.60;;;23.30;92.40;;;;;;5034507;28;20049;-80
2023/10/02 11:24:51;;;;;;;21.10;10.80;;;23.30;92.30;;;;;;5034928;28;20195;-80
2023/10/02 11:27:18;;;;;;;18.02;8.55;;;23.30;92.30;;;;;;5034185;28;20017;-80
2023/10/02 11:30:00;;;;;;;17.70;9.98;;;23.30;92.20;;;;;;5033012;28;20025;-80
2023/10/02 11:32:58;;;;;;;21.27;11.00;;;23.30;92.20;;;;;;5034203;28;20040;-80
2023/10/02 11:35:28;;;;;;;17.98;9.30;;;23.40;92.90;;;;;;5034043;28;20497;-80
2023/10/02 11:37:55;;;;;;;19.92;10.55;;;23.30;92.90;;;;;;5033031;28;20042;-80
2023/10/02 11:40:24;;;;;;;19.02;10.07;;;23.40;92.50;;;;;;5034313;28;20049;-80
2023/10/02 11:42:50;;;;;;;12.90;8.02;;;23.40;92.20;;;;;;5033907;28;20033;-80
2023/10/02 11:45:17;;;;;;;19.20;9.43;;;23.50;92.10;;;;;;5033822;28;20069;-80
2023/10/02 11:47:43;;;;;;;16.75;9.27;;;23.50;92.30;;;;;;5032578;28;20041;-80
2023/10/02 11:50:09;;;;;;;19.95;10.18;;;23.50;92.00;;;;;;5034131;28;20027;-80
2023/10/02 11:52:35;;;;;;;17.13;9.02;;;23.50;92.30;;;;;;5032360;28;20035;-80
2023/10/02 11:55:01;;;;;;;17.85;8.93;;;23.50;92.30;;;;;;5033768;28;20112;-79
2023/10/02 11:57:26;;;;;;;16.60;8.93;;;23.40;92.10;;;;;;5032277;28;20387;-80
2023/10/02 11:59:52;;;;;;;17.55;9.23;;;23.40;91.90;;;;;;5033694;28;20025;-80
2023/10/02 12:02:18;;;;;;;15.60;8.32;;;23.40;92.00;;;;;;5033136;28;20405;-79
2023/10/02 12:04:45;;;;;;;17.90;9.45;;;23.50;91.90;;;;;;5031795;28;20044;-79
2023/10/02 12:07:12;;;;;;;19.08;9.95;;;23.60;91.90;;;;;;5033569;28;20029;-79
2023/10/02 12:09:38;;;;;;;22.67;11.35;;;23.60;92.10;;;;;;5031938;28;20029;-79
2023/10/02 12:12:04;;;;;;;20.50;10.23;;;23.70;92.10;;;;;;5033448;28;20112;-79
2023/10/02 12:14:30;;;;;;;19.40;10.48;;;23.70;92.20;;;;;;5048649;28;20068;-79
2023/10/02 12:16:57;;;;;;;21.90;10.95;;;23.80;92.20;;;;;;5048993;28;20034;-79
2023/10/02 12:19:28;;;;;;;19.55;9.95;;;23.80;92.20;;;;;;5048575;28;20359;-79
2023/10/02 12:21:55;;;;;;;18.90;9.65;;;23.80;92.20;;;;;;5034178;28;20116;-79
2023/10/02 12:24:21;;;;;;;18.80;9.68;;;23.80;92.30;;;;;;5033167;28;20034;-79
2023/10/02 12:26:47;;;;;;;20.70;11.18;;;23.90;92.30;;;;;;5033126;28;20040;-77
2023/10/02 12:29:13;;;;;;;20.55;10.57;;;24.00;93.00;;;;;;5032944;28;20057;-79
2023/10/02 12:31:40;;;;;;;21.65;10.55;;;24.00;93.00;;;;;;5033161;28;20026;-79
2023/10/02 12:34:05;;;;;;;26.27;12.10;;;24.10;92.70;;;;;;5033151;28;20411;-79
2023/10/02 12:36:32;;;;;;;20.40;10.15;;;24.10;92.70;;;;;;5033654;28;20045;-79
2023/10/02 12:38:58;;;;;;;22.05;10.70;;;24.20;92.50;;;;;;5033029;28;20036;-79
2023/10/02 12:41:27;;;;;;;22.17;11.02;;;24.30;92.30;;;;;;5033299;28;20113;-79
2023/10/02 12:43:56;;;;;;;14.80;8.77;;;24.30;92.20;;;;;;5033746;28;20036;-79
2023/10/02 12:46:31;;;;;;;21.05;10.20;;;24.40;92.00;;;;;;5031537;28;20485;-79
2023/10/02 12:48:57;;;;;;;18.40;9.38;;;24.40;91.70;;;;;;5048610;28;20029;-79
2023/10/02 12:51:25;;;;;;;19.25;9.40;;;24.40;91.70;;;;;;5033004;28;20034;-79
2023/10/02 12:53:51;;;;;;;18.77;10.25;;;24.40;91.70;;;;;;5031796;28;20025;-79
2023/10/02 12:56:21;;;;;;;18.10;9.68;;;24.50;92.00;;;;;;5048116;28;20032;-79
2023/10/02 12:58:52;;;;;;;18.55;9.85;;;24.40;91.80;;;;;;5033141;28;20022;-79
2023/10/02 13:01:27;;;;;;;15.68;9.85;;;24.50;92.10;;;;;;5033114;28;20055;-78
2023/10/02 13:03:59;;;;;;;23.95;10.57;;;24.50;91.90;;;;;;5033235;28;20164;-78
2023/10/02 13:06:26;;;;;;;18.15;9.05;;;24.50;92.10;;;;;;5033181;28;20087;-78
2023/10/02 13:09:03;;;;;;;18.95;8.35;;;24.40;91.90;;;;;;5034277;28;20033;-79
2023/10/02 13:11:29;;;;;;;16.10;8.75;;;24.40;91.90;;;;;;5036489;28;20026;-79
2023/10/02 13:13:55;;;;;;;15.43;8.25;;;24.40;91.90;;;;;;5043775;28;20044;-79
2023/10/02 13:16:24;;;;;;;20.90;9.85;;;24.60;92.10;;;;;;5040065;28;20041;-79
2023/10/02 13:18:55;;;;;;;18.30;8.70;;;24.60;92.10;;;;;;5036930;28;20026;-79
2023/10/02 13:21:21;;;;;;;16.03;8.37;;;24.80;92.40;;;;;;5036844;28;20033;-79
2023/10/02 13:23:48;;;;;;;17.25;9.00;;;24.70;92.30;;;;;;5036002;28;20330;-79
2023/10/02 13:26:16;;;;;;;21.98;11.02;;;24.80;92.50;;;;;;5035842;28;20040;-79
2023/10/02 13:28:48;;;;;;;21.05;10.65;;;24.70;92.20;;;;;;5037143;28;20375;-79
2023/10/02 13:31:16;;;;;;;18.55;9.48;;;24.70;92.00;;;;;;5036229;28;20036;-78
2023/10/02 13:33:51;;;;;;;17.25;8.80;;;24.70;92.20;;;;;;5035004;28;20049;-78
2023/10/02 13:36:22;;;;;;;16.90;8.90;;;24.60;92.10;;;;;;5037181;28;20482;-79
2023/10/02 13:38:58;;;;;;;24.80;10.57;;;24.60;92.00;;;;;;5036311;28;20033;-79
2023/10/02 13:41:27;;;;;;;21.95;10.70;;;24.60;91.90;;;;;;5036347;28;20120;-79
2023/10/02 13:43:55;;;;;;;20.50;10.43;;;24.70;92.00;;;;;;5036512;28;20025;-79
2023/10/02 13:46:22;;;;;;;19.98;10.13;;;24.80;92.00;;;;;;5035170;28;20083;-79
2023/10/02 13:48:49;;;;;;;18.02;9.27;;;24.80;92.20;;;;;;5036544;28;20040;-79
2023/10/02 13:51:18;;;;;;;20.85;11.43;;;24.90;92.20;;;;;;5036239;28;20044;-79
2023/10/02 13:53:44;;;;;;;19.40;9.60;;;24.90;92.50;;;;;;5035506;28;20033;-79